SWA432 KVPS-KJAX
Flight info
| Callsign | SWA432 |
|---|---|
| Flight time | 0h 46m |
| Altitude | 31000 |
| Route | CORKY DEFUN SZW CAPPS MARQO2 |
| Aircraft | B38M/M-SDE1FGHILORVWXY/HB1 |
Departure
| Time | 2026-04-26 00:02 |
|---|---|
| Airport | Destin-Fort Walton Beach Airport (KVPS) |
Arrival
| Time | 2026-04-26 00:48 |
|---|---|
| Airport | Jacksonville International Airport (KJAX) |
| Time | Latitude | Longitude | Altitude | Speed | Heading |
|---|---|---|---|---|---|
| 2026-04-25 23:29 | 30.49509 | -86.54898 | 97 ft | 0 kts | 271° |
| 2026-04-25 23:46 | 30.49509 | -86.54885 | 99 ft | 3 kts | 271° |
| 2026-04-25 23:46 | 30.49509 | -86.54864 | 97 ft | 3 kts | 271° |
| 2026-04-25 23:47 | 30.49508 | -86.54843 | 96 ft | 3 kts | 271° |
| 2026-04-25 23:47 | 30.49508 | -86.54832 | 95 ft | 0 kts | 270° |
| 2026-04-25 23:49 | 30.49508 | -86.54833 | 95 ft | 0 kts | 254° |
| 2026-04-25 23:49 | 30.49504 | -86.54836 | 96 ft | 2 kts | 216° |
| 2026-04-25 23:49 | 30.49470 | -86.54836 | 97 ft | 10 kts | 176° |
| 2026-04-25 23:50 | 30.49361 | -86.54839 | 100 ft | 21 kts | 183° |
| 2026-04-25 23:50 | 30.49319 | -86.54841 | 97 ft | 0 kts | 182° |
| 2026-04-25 23:51 | 30.49268 | -86.54843 | 99 ft | 13 kts | 182° |
| 2026-04-25 23:51 | 30.49151 | -86.54885 | 100 ft | 22 kts | 206° |
| 2026-04-25 23:51 | 30.49009 | -86.54960 | 105 ft | 13 kts | 172° |
| 2026-04-25 23:51 | 30.48962 | -86.54897 | 107 ft | 11 kts | 117° |
| 2026-04-25 23:52 | 30.48915 | -86.54801 | 106 ft | 18 kts | 120° |
| 2026-04-25 23:52 | 30.48832 | -86.54635 | 105 ft | 29 kts | 117° |
| 2026-04-25 23:52 | 30.48714 | -86.54393 | 101 ft | 40 kts | 119° |
| 2026-04-25 23:52 | 30.48559 | -86.54082 | 100 ft | 49 kts | 119° |
| 2026-04-25 23:53 | 30.48419 | -86.53791 | 101 ft | 35 kts | 120° |
| 2026-04-25 23:53 | 30.48321 | -86.53595 | 103 ft | 28 kts | 120° |
| 2026-04-25 23:53 | 30.48213 | -86.53372 | 101 ft | 28 kts | 120° |
| 2026-04-25 23:53 | 30.48119 | -86.53183 | 99 ft | 32 kts | 120° |
| 2026-04-25 23:54 | 30.48018 | -86.52979 | 100 ft | 22 kts | 120° |
| 2026-04-25 23:54 | 30.47924 | -86.52789 | 101 ft | 32 kts | 119° |
| 2026-04-25 23:54 | 30.47813 | -86.52570 | 103 ft | 27 kts | 121° |
| 2026-04-25 23:54 | 30.47705 | -86.52346 | 103 ft | 37 kts | 115° |
| 2026-04-25 23:55 | 30.47650 | -86.52073 | 99 ft | 17 kts | 102° |
| 2026-04-25 23:55 | 30.47616 | -86.51891 | 99 ft | 28 kts | 102° |
| 2026-04-25 23:55 | 30.47571 | -86.51646 | 100 ft | 33 kts | 102° |
| 2026-04-25 23:55 | 30.47649 | -86.51442 | 100 ft | 32 kts | 11° |
| 2026-04-25 23:56 | 30.47871 | -86.51390 | 100 ft | 34 kts | 12° |
| 2026-04-25 23:56 | 30.48105 | -86.51333 | 100 ft | 35 kts | 12° |
| 2026-04-25 23:56 | 30.48278 | -86.51290 | 100 ft | 18 kts | 12° |
| 2026-04-25 23:56 | 30.48406 | -86.51259 | 100 ft | 20 kts | 13° |
| 2026-04-25 23:57 | 30.48549 | -86.51220 | 99 ft | 22 kts | 13° |
| 2026-04-25 23:57 | 30.48707 | -86.51179 | 100 ft | 24 kts | 12° |
| 2026-04-25 23:57 | 30.48881 | -86.51136 | 98 ft | 27 kts | 12° |
| 2026-04-25 23:57 | 30.49068 | -86.51089 | 99 ft | 29 kts | 12° |
| 2026-04-25 23:58 | 30.49273 | -86.51037 | 97 ft | 31 kts | 12° |
| 2026-04-25 23:58 | 30.49494 | -86.50981 | 96 ft | 34 kts | 12° |
| 2026-04-25 23:58 | 30.49726 | -86.50924 | 97 ft | 34 kts | 14° |
| 2026-04-25 23:58 | 30.49848 | -86.50904 | 98 ft | 11 kts | 338° |
| 2026-04-25 23:59 | 30.49882 | -86.50973 | 99 ft | 0 kts | 283° |
| 2026-04-26 00:00 | 30.49884 | -86.50986 | 100 ft | 4 kts | 283° |
| 2026-04-26 00:00 | 30.49899 | -86.51059 | 99 ft | 15 kts | 283° |
| 2026-04-26 00:01 | 30.49860 | -86.51148 | 99 ft | 18 kts | 196° |
| 2026-04-26 00:01 | 30.49666 | -86.51195 | 95 ft | 50 kts | 193° |
| 2026-04-26 00:01 | 30.49082 | -86.51344 | 102 ft | 119 kts | 192° |
| 2026-04-26 00:01 | 30.48124 | -86.51587 | 254 ft | 156 kts | 194° |
| 2026-04-26 00:02 | 30.47063 | -86.51863 | 953 ft | 159 kts | 193° |
| 2026-04-26 00:02 | 30.45899 | -86.52137 | 1402 ft | 181 kts | 192° |
| 2026-04-26 00:02 | 30.44674 | -86.52396 | 2150 ft | 181 kts | 192° |
| 2026-04-26 00:02 | 30.43379 | -86.52659 | 2702 ft | 197 kts | 192° |
| 2026-04-26 00:03 | 30.41942 | -86.52842 | 2838 ft | 220 kts | 175° |
| 2026-04-26 00:03 | 30.40544 | -86.52033 | 2701 ft | 236 kts | 133° |
| 2026-04-26 00:03 | 30.39874 | -86.50279 | 2769 ft | 251 kts | 95° |
| 2026-04-26 00:03 | 30.40249 | -86.48281 | 2843 ft | 263 kts | 58° |
| 2026-04-26 00:04 | 30.41562 | -86.46840 | 2910 ft | 264 kts | 27° |
| 2026-04-26 00:04 | 30.43191 | -86.45791 | 2984 ft | 272 kts | 30° |
| 2026-04-26 00:04 | 30.44769 | -86.44597 | 3829 ft | 268 kts | 32° |
| 2026-04-26 00:04 | 30.46324 | -86.43367 | 4765 ft | 274 kts | 32° |
| 2026-04-26 00:05 | 30.47886 | -86.42082 | 5693 ft | 276 kts | 33° |
| 2026-04-26 00:05 | 30.49455 | -86.40763 | 6547 ft | 280 kts | 33° |
| 2026-04-26 00:05 | 30.51037 | -86.39420 | 7373 ft | 284 kts | 33° |
| 2026-04-26 00:05 | 30.52643 | -86.38045 | 8177 ft | 288 kts | 33° |
| 2026-04-26 00:06 | 30.54265 | -86.36649 | 8963 ft | 293 kts | 33° |
| 2026-04-26 00:06 | 30.55911 | -86.35229 | 9738 ft | 296 kts | 33° |
| 2026-04-26 00:06 | 30.57558 | -86.33804 | 10341 ft | 305 kts | 33° |
| 2026-04-26 00:06 | 30.59306 | -86.32279 | 10679 ft | 323 kts | 33° |
| 2026-04-26 00:07 | 30.61141 | -86.30672 | 11131 ft | 336 kts | 33° |
| 2026-04-26 00:07 | 30.63020 | -86.29035 | 11855 ft | 339 kts | 33° |
| 2026-04-26 00:07 | 30.64921 | -86.27391 | 12608 ft | 343 kts | 32° |
| 2026-04-26 00:07 | 30.66845 | -86.25729 | 13395 ft | 346 kts | 32° |
| 2026-04-26 00:08 | 30.68788 | -86.24052 | 14126 ft | 350 kts | 32° |
| 2026-04-26 00:08 | 30.70762 | -86.22348 | 14746 ft | 357 kts | 32° |
| 2026-04-26 00:08 | 30.72755 | -86.20627 | 14931 ft | 356 kts | 32° |
| 2026-04-26 00:08 | 30.74746 | -86.18910 | 14998 ft | 356 kts | 32° |
| 2026-04-26 00:09 | 30.76738 | -86.17189 | 14997 ft | 356 kts | 32° |
| 2026-04-26 00:09 | 30.78652 | -86.15367 | 14986 ft | 358 kts | 43° |
| 2026-04-26 00:09 | 30.80027 | -86.12983 | 14984 ft | 364 kts | 63° |
| 2026-04-26 00:09 | 30.80671 | -86.10127 | 14987 ft | 369 kts | 83° |
| 2026-04-26 00:10 | 30.80524 | -86.07134 | 14999 ft | 372 kts | 97° |
| 2026-04-26 00:10 | 30.80134 | -86.04151 | 14993 ft | 373 kts | 97° |
| 2026-04-26 00:10 | 30.79734 | -86.01170 | 14994 ft | 373 kts | 97° |
| 2026-04-26 00:10 | 30.79322 | -85.98187 | 14994 ft | 373 kts | 98° |
| 2026-04-26 00:11 | 30.78904 | -85.95206 | 14990 ft | 373 kts | 98° |
| 2026-04-26 00:11 | 30.78485 | -85.92229 | 14991 ft | 373 kts | 98° |
| 2026-04-26 00:11 | 30.78064 | -85.89253 | 14989 ft | 373 kts | 98° |
| 2026-04-26 00:11 | 30.77646 | -85.86301 | 15088 ft | 376 kts | 98° |
| 2026-04-26 00:12 | 30.77220 | -85.83308 | 15873 ft | 375 kts | 98° |
| 2026-04-26 00:12 | 30.76793 | -85.80298 | 16580 ft | 380 kts | 98° |
| 2026-04-26 00:12 | 30.76358 | -85.77249 | 17269 ft | 383 kts | 98° |
| 2026-04-26 00:12 | 30.75920 | -85.74178 | 17956 ft | 387 kts | 98° |
| 2026-04-26 00:13 | 30.75476 | -85.71077 | 18522 ft | 391 kts | 98° |
| 2026-04-26 00:13 | 30.75028 | -85.67946 | 19095 ft | 394 kts | 98° |
| 2026-04-26 00:13 | 30.74574 | -85.64784 | 19661 ft | 397 kts | 98° |
| 2026-04-26 00:13 | 30.74117 | -85.61604 | 20219 ft | 401 kts | 98° |
| 2026-04-26 00:14 | 30.73655 | -85.58391 | 20764 ft | 404 kts | 98° |
| 2026-04-26 00:14 | 30.73194 | -85.55199 | 21296 ft | 408 kts | 98° |
| 2026-04-26 00:14 | 30.72723 | -85.51936 | 21826 ft | 411 kts | 98° |
| 2026-04-26 00:14 | 30.72246 | -85.48644 | 22356 ft | 414 kts | 98° |
| 2026-04-26 00:15 | 30.71765 | -85.45330 | 22880 ft | 418 kts | 98° |
| 2026-04-26 00:15 | 30.71280 | -85.41990 | 23432 ft | 421 kts | 98° |
| 2026-04-26 00:15 | 30.70789 | -85.38622 | 23866 ft | 424 kts | 98° |
| 2026-04-26 00:15 | 30.70294 | -85.35225 | 24288 ft | 427 kts | 98° |
| 2026-04-26 00:16 | 30.69795 | -85.31808 | 24706 ft | 430 kts | 98° |
| 2026-04-26 00:16 | 30.69291 | -85.28364 | 25139 ft | 433 kts | 98° |
| 2026-04-26 00:16 | 30.68783 | -85.24903 | 25545 ft | 437 kts | 98° |
| 2026-04-26 00:16 | 30.68270 | -85.21416 | 25946 ft | 440 kts | 98° |
| 2026-04-26 00:17 | 30.67760 | -85.17949 | 26334 ft | 443 kts | 98° |
| 2026-04-26 00:17 | 30.67237 | -85.14405 | 26722 ft | 446 kts | 98° |
| 2026-04-26 00:17 | 30.66711 | -85.10847 | 27099 ft | 449 kts | 98° |
| 2026-04-26 00:17 | 30.66180 | -85.07263 | 27484 ft | 452 kts | 98° |
| 2026-04-26 00:18 | 30.65643 | -85.03648 | 27854 ft | 455 kts | 99° |
| 2026-04-26 00:18 | 30.65103 | -85.00013 | 28240 ft | 458 kts | 99° |
| 2026-04-26 00:18 | 30.64558 | -84.96356 | 28600 ft | 461 kts | 99° |
| 2026-04-26 00:18 | 30.64008 | -84.92674 | 28955 ft | 463 kts | 99° |
| 2026-04-26 00:19 | 30.63454 | -84.88967 | 29296 ft | 466 kts | 99° |
| 2026-04-26 00:19 | 30.62896 | -84.85247 | 29638 ft | 469 kts | 99° |
| 2026-04-26 00:19 | 30.62334 | -84.81508 | 29966 ft | 472 kts | 99° |
| 2026-04-26 00:19 | 30.61774 | -84.77787 | 30243 ft | 474 kts | 99° |
| 2026-04-26 00:20 | 30.61204 | -84.74005 | 30556 ft | 476 kts | 99° |
| 2026-04-26 00:20 | 30.60630 | -84.70208 | 30828 ft | 478 kts | 99° |
| 2026-04-26 00:20 | 30.60053 | -84.66398 | 30909 ft | 478 kts | 100° |
| 2026-04-26 00:21 | 30.58908 | -84.58859 | 30898 ft | 472 kts | 100° |
| 2026-04-26 00:21 | 30.57763 | -84.51347 | 30892 ft | 472 kts | 100° |
| 2026-04-26 00:22 | 30.56616 | -84.43842 | 30892 ft | 472 kts | 100° |
| 2026-04-26 00:22 | 30.55591 | -84.36321 | 30886 ft | 472 kts | 92° |
| 2026-04-26 00:23 | 30.55436 | -84.28714 | 30896 ft | 472 kts | 91° |
| 2026-04-26 00:23 | 30.55265 | -84.21176 | 30898 ft | 467 kts | 91° |
| 2026-04-26 00:24 | 30.55092 | -84.13644 | 30899 ft | 467 kts | 91° |
| 2026-04-26 00:24 | 30.54915 | -84.06110 | 30901 ft | 467 kts | 91° |
| 2026-04-26 00:25 | 30.54733 | -83.98582 | 30902 ft | 465 kts | 92° |
| 2026-04-26 00:25 | 30.54643 | -83.94886 | 30728 ft | 453 kts | 91° |
| 2026-04-26 00:25 | 30.54554 | -83.91275 | 30472 ft | 444 kts | 91° |
| 2026-04-26 00:25 | 30.54465 | -83.87715 | 30232 ft | 440 kts | 92° |
| 2026-04-26 00:26 | 30.54376 | -83.84169 | 29977 ft | 437 kts | 92° |
| 2026-04-26 00:26 | 30.54287 | -83.80649 | 29687 ft | 435 kts | 92° |
| 2026-04-26 00:26 | 30.54198 | -83.77153 | 29400 ft | 433 kts | 92° |
| 2026-04-26 00:26 | 30.54108 | -83.73672 | 29044 ft | 429 kts | 92° |
| 2026-04-26 00:27 | 30.54018 | -83.70207 | 28408 ft | 430 kts | 91° |
| 2026-04-26 00:27 | 30.53926 | -83.66740 | 27871 ft | 429 kts | 91° |
| 2026-04-26 00:27 | 30.53834 | -83.63302 | 27421 ft | 425 kts | 91° |
| 2026-04-26 00:27 | 30.53742 | -83.59870 | 26960 ft | 423 kts | 91° |
| 2026-04-26 00:28 | 30.53681 | -83.57620 | 26656 ft | 421 kts | 91° |
| 2026-04-26 00:28 | 30.53558 | -83.53134 | 26052 ft | 418 kts | 91° |
| 2026-04-26 00:28 | 30.53461 | -83.49769 | 25596 ft | 416 kts | 91° |
| 2026-04-26 00:28 | 30.53364 | -83.46428 | 25236 ft | 410 kts | 90° |
| 2026-04-26 00:29 | 30.53301 | -83.44252 | 24988 ft | 405 kts | 90° |
| 2026-04-26 00:29 | 30.53205 | -83.41010 | 24604 ft | 399 kts | 90° |
| 2026-04-26 00:29 | 30.53111 | -83.37823 | 24220 ft | 393 kts | 90° |
| 2026-04-26 00:29 | 30.53016 | -83.34642 | 23839 ft | 393 kts | 90° |
| 2026-04-26 00:30 | 30.52920 | -83.31481 | 23452 ft | 391 kts | 89° |
| 2026-04-26 00:30 | 30.52824 | -83.28340 | 23009 ft | 389 kts | 89° |
| 2026-04-26 00:30 | 30.52728 | -83.25205 | 22618 ft | 387 kts | 89° |
| 2026-04-26 00:30 | 30.52632 | -83.22096 | 22246 ft | 385 kts | 89° |
| 2026-04-26 00:31 | 30.52535 | -83.18998 | 21877 ft | 383 kts | 90° |
| 2026-04-26 00:31 | 30.52438 | -83.15913 | 21506 ft | 382 kts | 90° |
| 2026-04-26 00:31 | 30.52341 | -83.12842 | 21144 ft | 382 kts | 90° |
| 2026-04-26 00:31 | 30.52243 | -83.09699 | 20688 ft | 395 kts | 90° |
| 2026-04-26 00:32 | 30.52142 | -83.06500 | 20280 ft | 398 kts | 90° |
| 2026-04-26 00:32 | 30.52040 | -83.03279 | 19947 ft | 401 kts | 90° |
| 2026-04-26 00:32 | 30.51833 | -82.96833 | 19205 ft | 398 kts | 90° |
| 2026-04-26 00:33 | 30.51729 | -82.93629 | 18821 ft | 397 kts | 90° |
| 2026-04-26 00:33 | 30.51624 | -82.90438 | 18438 ft | 395 kts | 90° |
| 2026-04-26 00:33 | 30.51519 | -82.87263 | 18031 ft | 393 kts | 90° |
| 2026-04-26 00:33 | 30.51414 | -82.84117 | 17650 ft | 390 kts | 90° |
| 2026-04-26 00:34 | 30.51309 | -82.80979 | 17313 ft | 388 kts | 90° |
| 2026-04-26 00:34 | 30.51205 | -82.77896 | 16964 ft | 386 kts | 91° |
| 2026-04-26 00:34 | 30.51099 | -82.74790 | 16591 ft | 384 kts | 91° |
| 2026-04-26 00:34 | 30.50994 | -82.71707 | 16221 ft | 381 kts | 91° |
| 2026-04-26 00:35 | 30.50915 | -82.68645 | 15801 ft | 379 kts | 87° |
| 2026-04-26 00:35 | 30.51053 | -82.65577 | 15288 ft | 381 kts | 85° |
| 2026-04-26 00:35 | 30.51185 | -82.62515 | 14804 ft | 381 kts | 86° |
| 2026-04-26 00:35 | 30.51304 | -82.59442 | 14314 ft | 381 kts | 86° |
| 2026-04-26 00:36 | 30.51414 | -82.56389 | 13808 ft | 377 kts | 87° |
| 2026-04-26 00:36 | 30.51535 | -82.53381 | 13282 ft | 366 kts | 86° |
| 2026-04-26 00:36 | 30.51659 | -82.50482 | 12893 ft | 355 kts | 87° |
| 2026-04-26 00:36 | 30.51776 | -82.47707 | 12562 ft | 341 kts | 87° |
| 2026-04-26 00:37 | 30.51889 | -82.44990 | 12241 ft | 327 kts | 87° |
| 2026-04-26 00:37 | 30.51995 | -82.42431 | 11908 ft | 317 kts | 88° |
| 2026-04-26 00:37 | 30.52071 | -82.39878 | 11584 ft | 316 kts | 94° |
| 2026-04-26 00:37 | 30.51556 | -82.37439 | 11240 ft | 310 kts | 118° |
| 2026-04-26 00:38 | 30.50262 | -82.35476 | 11025 ft | 305 kts | 140° |
| 2026-04-26 00:38 | 30.48651 | -82.33891 | 10658 ft | 304 kts | 143° |
| 2026-04-26 00:38 | 30.47015 | -82.32340 | 10274 ft | 302 kts | 143° |
| 2026-04-26 00:38 | 30.45409 | -82.30812 | 9986 ft | 295 kts | 143° |
| 2026-04-26 00:39 | 30.43845 | -82.29321 | 9753 ft | 286 kts | 143° |
| 2026-04-26 00:39 | 30.42323 | -82.27868 | 9557 ft | 284 kts | 143° |
| 2026-04-26 00:39 | 30.40803 | -82.26398 | 9390 ft | 284 kts | 139° |
| 2026-04-26 00:39 | 30.39674 | -82.24530 | 9205 ft | 287 kts | 113° |
| 2026-04-26 00:40 | 30.39344 | -82.22253 | 9035 ft | 290 kts | 89° |
| 2026-04-26 00:40 | 30.39541 | -82.19952 | 8869 ft | 292 kts | 84° |
| 2026-04-26 00:40 | 30.39800 | -82.17621 | 8583 ft | 292 kts | 83° |
| 2026-04-26 00:40 | 30.40065 | -82.15280 | 8229 ft | 293 kts | 83° |
| 2026-04-26 00:41 | 30.40330 | -82.12939 | 7773 ft | 292 kts | 83° |
| 2026-04-26 00:41 | 30.40601 | -82.10606 | 7219 ft | 291 kts | 83° |
| 2026-04-26 00:41 | 30.40875 | -82.08282 | 6676 ft | 290 kts | 83° |
| 2026-04-26 00:41 | 30.41151 | -82.05973 | 6137 ft | 289 kts | 83° |
| 2026-04-26 00:42 | 30.41427 | -82.03681 | 5664 ft | 284 kts | 83° |
| 2026-04-26 00:42 | 30.41699 | -82.01438 | 5271 ft | 277 kts | 83° |
| 2026-04-26 00:42 | 30.41963 | -81.99254 | 4890 ft | 271 kts | 83° |
| 2026-04-26 00:42 | 30.42224 | -81.97113 | 4507 ft | 266 kts | 83° |
| 2026-04-26 00:43 | 30.42596 | -81.95041 | 4131 ft | 260 kts | 76° |
| 2026-04-26 00:43 | 30.43028 | -81.93037 | 3853 ft | 251 kts | 78° |
| 2026-04-26 00:43 | 30.43393 | -81.91104 | 3623 ft | 241 kts | 79° |
| 2026-04-26 00:43 | 30.43710 | -81.89250 | 3434 ft | 228 kts | 80° |
| 2026-04-26 00:44 | 30.44153 | -81.87535 | 3202 ft | 216 kts | 69° |
| 2026-04-26 00:44 | 30.44685 | -81.85988 | 2908 ft | 198 kts | 69° |
| 2026-04-26 00:44 | 30.45149 | -81.84589 | 2673 ft | 175 kts | 71° |
| 2026-04-26 00:44 | 30.45550 | -81.83306 | 2351 ft | 165 kts | 71° |
| 2026-04-26 00:45 | 30.45939 | -81.82075 | 2099 ft | 162 kts | 71° |
| 2026-04-26 00:45 | 30.46330 | -81.80849 | 1811 ft | 160 kts | 72° |
| 2026-04-26 00:45 | 30.46693 | -81.79639 | 1665 ft | 159 kts | 73° |
| 2026-04-26 00:45 | 30.47055 | -81.78432 | 1439 ft | 158 kts | 73° |
| 2026-04-26 00:46 | 30.47418 | -81.77236 | 1315 ft | 155 kts | 73° |
| 2026-04-26 00:46 | 30.47768 | -81.76071 | 1117 ft | 155 kts | 73° |
| 2026-04-26 00:46 | 30.48128 | -81.74916 | 908 ft | 151 kts | 74° |
| 2026-04-26 00:46 | 30.48472 | -81.73778 | 721 ft | 148 kts | 74° |
| 2026-04-26 00:47 | 30.48803 | -81.72665 | 523 ft | 145 kts | 72° |
| 2026-04-26 00:47 | 30.49137 | -81.71564 | 365 ft | 145 kts | 72° |
| 2026-04-26 00:47 | 30.49479 | -81.70457 | 145 ft | 146 kts | 70° |
| 2026-04-26 00:47 | 30.49809 | -81.69382 | 45 ft | 131 kts | 70° |
| 2026-04-26 00:48 | 30.50056 | -81.68576 | 38 ft | 73 kts | 70° |
| 2026-04-26 00:48 | 30.50172 | -81.68190 | 42 ft | 29 kts | 81° |
| 2026-04-26 00:48 | 30.50166 | -81.68112 | 41 ft | 2 kts | 104° |
| 2026-04-26 00:48 | 30.50137 | -81.68037 | 41 ft | 17 kts | 126° |
| 2026-04-26 00:49 | 30.50104 | -81.68008 | 41 ft | 0 kts | 154° |
| 2026-04-26 00:50 | 30.50063 | -81.68002 | 41 ft | 10 kts | 207° |
| 2026-04-26 00:51 | 30.50026 | -81.68105 | 42 ft | 19 kts | 251° |
| 2026-04-26 00:51 | 30.49969 | -81.68297 | 37 ft | 31 kts | 251° |
| 2026-04-26 00:51 | 30.49895 | -81.68441 | 38 ft | 16 kts | 198° |
| 2026-04-26 00:51 | 30.49751 | -81.68474 | 38 ft | 27 kts | 191° |
| 2026-04-26 00:52 | 30.49549 | -81.68519 | 40 ft | 24 kts | 191° |
| 2026-04-26 00:52 | 30.49489 | -81.68502 | 41 ft | 10 kts | 116° |
| 2026-04-26 00:52 | 30.49416 | -81.68436 | 42 ft | 13 kts | 178° |
| 2026-04-26 00:52 | 30.49333 | -81.68396 | 43 ft | 13 kts | 113° |
| 2026-04-26 00:53 | 30.49323 | -81.68354 | 42 ft | 0 kts | 101° |